This is the latest recevied weather packets stored in our database for station/object K9TLD. If no packets are shown the sender has not sent any weather packets the latest 1 day(s).
| Time | Temp. | Humidity | Pressure | Rain* | Wind** | Luminosity | Snow |
|---|---|---|---|---|---|---|---|
| 1778090019 | 8.33° C | 74% | 1014.8 hPa | 0 mm | - | 890 W/m² | - |
| 1778088802 | 7.22° C | 75% | 1015 hPa | 0 mm | - | 224 W/m² | - |
| 1778088499 | 7.22° C | 76% | 1015.2 hPa | 0 mm | - | 230 W/m² | - |
| 1778087893 | 7.78° C | 74% | 1015.1 hPa | 0 mm | - | 176 W/m² | - |
| 1778087590 | 7.78° C | 74% | 1015.3 hPa | 0 mm | - | 290 W/m² | - |
| 1778087288 | 7.78° C | 76% | 1015.3 hPa | 0 mm | - | 859 W/m² | - |
| 1778085773 | 7.22° C | 77% | 1015.2 hPa | 0 mm | - | 130 W/m² | - |
| 1778085470 | 7.22° C | 77% | 1015.2 hPa | 0 mm | - | 179 W/m² | - |
| 1778084861 | 7.78° C | 72% | 1015 hPa | 0 mm | - | 152 W/m² | - |
| 1778084559 | 7.78° C | 75% | 1015.1 hPa | 0 mm | - | 754 W/m² | - |
| 1778084256 | 7.22° C | 74% | 1015.2 hPa | 0 mm | - | 111 W/m² | - |
| 1778083347 | 7.78° C | 72% | 1015.1 hPa | 0 mm | - | 310 W/m² | - |
| 1778082742 | 8.89° C | 70% | 1015.2 hPa | 0 mm | - | 820 W/m² | - |
| 1778078580 | 8.89° C | 68% | 1015.3 hPa | 0 mm | - | 536 W/m² | - |
| 1778078278 | 8.89° C | 69% | 1015.2 hPa | 0 mm | - | 519 W/m² | - |
| 1778077371 | 8.33° C | 72% | 1015.1 hPa | 0 mm | - | 484 W/m² | - |
| 1778077069 | 7.78° C | 74% | 1015 hPa | 0 mm | - | 471 W/m² | - |
| 1778076767 | 7.78° C | 74% | 1015 hPa | 0 mm | - | 454 W/m² | - |
| 1778076161 | 8.33° C | 74% | 1015 hPa | 0 mm | - | 427 W/m² | - |
| 1778075858 | 8.33° C | 73% | 1015.1 hPa | 0 mm | - | 412 W/m² | - |
| 1778075554 | 8.33° C | 74% | 1015.1 hPa | 0 mm | - | 399 W/m² | - |
| 1778074645 | 7.78° C | 74% | 1015.2 hPa | 0 mm | - | 357 W/m² | - |
| 1778073129 | 7.78° C | 74% | 1015.2 hPa | 0 mm | - | 103 W/m² | - |
| 1778072826 | 7.22° C | 76% | 1014.8 hPa | 0 mm | - | 224 W/m² | - |
| 1778072221 | 7.78° C | 73% | 1014.6 hPa | 0 mm | - | 166 W/m² | - |
* Rain latest hour (hover to see other rain measurements)
** Current wind speed in m/s (hover to see current wind gust speed)